createdAt,value
2022-12-01T00:01:09.099Z,27.05
2022-12-01T00:03:36.458Z,27.80
2022-12-01T00:06:06.337Z,29.97
2022-12-01T00:08:34.163Z,26.63
2022-12-01T00:11:05.175Z,28.88
2022-12-01T00:13:32.153Z,27.90
2022-12-01T00:18:25.308Z,26.35
2022-12-01T00:20:56.075Z,27.75
2022-12-01T00:23:23.473Z,27.50
2022-12-01T00:25:50.059Z,29.00
2022-12-01T00:28:16.592Z,29.02
2022-12-01T00:30:43.157Z,27.95
2022-12-01T00:33:09.796Z,30.33
2022-12-01T00:35:36.416Z,30.80
2022-12-01T00:38:02.959Z,30.92
2022-12-01T00:40:29.477Z,27.52
2022-12-01T00:42:56.055Z,27.55
2022-12-01T00:45:22.839Z,27.67
2022-12-01T00:47:49.317Z,29.83
2022-12-01T00:50:15.922Z,28.60
2022-12-01T00:52:42.411Z,28.08
2022-12-01T00:55:09.079Z,27.45
2022-12-01T00:57:35.630Z,26.20
2022-12-01T01:00:02.480Z,27.70
2022-12-01T01:02:29.023Z,30.05
2022-12-01T01:04:55.585Z,26.98
2022-12-01T01:07:22.292Z,28.13
2022-12-01T01:09:49.230Z,26.13
2022-12-01T01:12:15.899Z,24.85
2022-12-01T01:14:42.432Z,26.90
2022-12-01T01:17:08.991Z,27.23
2022-12-01T01:19:35.590Z,25.42
2022-12-01T01:22:02.086Z,26.52
2022-12-01T01:24:28.641Z,27.65
2022-12-01T01:26:55.455Z,26.13
2022-12-01T01:29:22.263Z,26.65
2022-12-01T01:31:48.773Z,26.90
2022-12-01T01:34:15.323Z,25.42
2022-12-01T01:36:41.820Z,25.67
2022-12-01T01:39:08.364Z,26.38
2022-12-01T01:41:34.862Z,26.85
2022-12-01T01:44:03.143Z,26.63
2022-12-01T01:46:30.664Z,24.47
2022-12-01T01:49:09.657Z,26.53
2022-12-01T01:51:50.335Z,26.50
2022-12-01T01:54:33.036Z,25.83
2022-12-01T01:57:01.766Z,25.90
2022-12-01T01:59:31.693Z,25.98
2022-12-01T02:02:07.270Z,26.38
2022-12-01T02:04:40.456Z,25.10
2022-12-01T02:07:08.239Z,26.67
2022-12-01T02:09:36.198Z,26.33
2022-12-01T02:12:26.551Z,27.67
2022-12-01T02:15:17.441Z,26.08
2022-12-01T02:18:17.894Z,27.53
2022-12-01T02:21:21.963Z,27.00
2022-12-01T02:24:03.726Z,28.63
2022-12-01T02:26:50.880Z,28.50
2022-12-01T02:29:40.642Z,28.30
2022-12-01T02:32:17.454Z,28.80
2022-12-01T02:37:24.138Z,27.90
2022-12-01T02:39:53.588Z,30.00
2022-12-01T02:42:54.289Z,31.15
2022-12-01T02:45:28.770Z,28.90
2022-12-01T02:48:00.674Z,27.13
2022-12-01T02:50:29.541Z,27.00
2022-12-01T02:52:56.114Z,29.13
2022-12-01T02:55:22.753Z,28.13
2022-12-01T02:57:49.286Z,28.33
2022-12-01T03:00:17.709Z,30.77
2022-12-01T03:03:26.624Z,28.73
2022-12-01T03:06:03.367Z,27.77
2022-12-01T03:11:06.349Z,26.52
2022-12-01T03:16:14.147Z,27.70
2022-12-01T03:18:51.880Z,28.37
2022-12-01T03:21:40.929Z,27.57
2022-12-01T03:24:15.049Z,26.33
2022-12-01T03:26:46.002Z,27.40
2022-12-01T03:29:24.940Z,28.00
2022-12-01T03:31:59.090Z,27.75
2022-12-01T03:34:25.862Z,28.83
2022-12-01T03:36:59.055Z,28.95
2022-12-01T03:39:33.371Z,27.13
2022-12-01T03:42:04.067Z,28.37
2022-12-01T03:44:40.668Z,31.60
2022-12-01T03:47:12.362Z,32.53
2022-12-01T03:49:40.548Z,29.40
2022-12-01T03:52:17.911Z,31.80
2022-12-01T03:55:09.382Z,32.73
2022-12-01T03:57:45.550Z,31.90
2022-12-01T04:00:14.736Z,34.05
2022-12-01T04:02:42.634Z,33.47
2022-12-01T04:05:12.031Z,31.07
2022-12-01T04:07:40.098Z,33.78
2022-12-01T04:10:08.057Z,34.15
2022-12-01T04:12:34.554Z,32.28
2022-12-01T04:15:04.308Z,31.23
2022-12-01T04:17:31.275Z,35.35
2022-12-01T04:22:25.102Z,31.45
2022-12-01T04:24:51.843Z,37.27
2022-12-01T04:27:19.025Z,35.00
2022-12-01T04:29:46.150Z,33.87
2022-12-01T04:32:13.483Z,34.40
2022-12-01T04:34:40.015Z,34.93
2022-12-01T04:37:09.938Z,33.33
2022-12-01T04:39:36.727Z,35.38
2022-12-01T04:42:03.457Z,34.70
2022-12-01T04:44:34.585Z,33.10
2022-12-01T04:47:02.030Z,33.20
2022-12-01T04:51:55.020Z,33.50
2022-12-01T04:54:22.336Z,35.72
2022-12-01T04:56:49.084Z,34.15
2022-12-01T04:59:15.784Z,33.90
2022-12-01T05:01:42.308Z,35.25
2022-12-01T05:04:13.328Z,33.38
2022-12-01T05:06:40.401Z,34.35
2022-12-01T05:14:00.500Z,33.57
2022-12-01T05:16:32.620Z,34.05
2022-12-01T05:19:20.746Z,34.00
2022-12-01T05:21:49.508Z,37.63
2022-12-01T05:24:17.017Z,34.60
2022-12-01T05:26:44.843Z,34.75
2022-12-01T05:29:15.492Z,34.97
2022-12-01T05:31:42.078Z,37.30
2022-12-01T05:34:09.128Z,34.38
2022-12-01T05:39:03.464Z,34.28
2022-12-01T05:43:56.363Z,34.30
2022-12-01T05:46:22.899Z,33.72
2022-12-01T05:48:49.457Z,37.30
2022-12-01T05:51:16.840Z,34.75
2022-12-01T05:53:43.653Z,34.17
2022-12-01T05:56:10.140Z,36.63
2022-12-01T05:58:37.148Z,35.33
2022-12-01T06:03:30.147Z,35.40
2022-12-01T06:05:56.723Z,34.85
2022-12-01T06:08:23.287Z,35.08
2022-12-01T06:10:49.795Z,36.20
2022-12-01T06:13:16.280Z,33.75
2022-12-01T06:15:42.728Z,35.35
2022-12-01T06:18:10.085Z,32.78
2022-12-01T06:20:36.541Z,38.30
2022-12-01T06:23:03.087Z,34.65
2022-12-01T06:25:29.669Z,34.88
2022-12-01T06:27:57.818Z,35.13
2022-12-01T06:30:25.367Z,36.03
2022-12-01T06:32:51.907Z,35.27
2022-12-01T06:35:18.455Z,36.70
2022-12-01T06:37:44.914Z,36.30
2022-12-01T06:40:12.275Z,36.75
2022-12-01T06:42:38.803Z,37.10
2022-12-01T06:45:05.714Z,34.55
2022-12-01T06:47:32.196Z,37.35
2022-12-01T06:49:58.717Z,40.10
2022-12-01T06:52:25.227Z,37.20
2022-12-01T06:54:51.725Z,37.13
2022-12-01T06:57:18.397Z,35.78
2022-12-01T06:59:45.345Z,38.28
2022-12-01T07:02:12.346Z,37.38
2022-12-01T07:04:38.922Z,37.28
2022-12-01T07:07:05.895Z,37.38
2022-12-01T07:11:58.786Z,37.50
2022-12-01T07:14:30.820Z,30.85
2022-12-01T07:16:58.296Z,39.05
2022-12-01T07:19:24.963Z,41.17
2022-12-01T07:21:51.417Z,37.63
2022-12-01T07:24:17.926Z,40.25
2022-12-01T07:26:44.426Z,38.88
2022-12-01T07:29:11.543Z,39.25
2022-12-01T07:31:38.852Z,37.53
2022-12-01T07:34:06.100Z,38.87
2022-12-01T07:36:32.915Z,38.58
2022-12-01T07:39:00.230Z,39.10
2022-12-01T07:41:26.718Z,41.70
2022-12-01T07:43:56.173Z,42.05
2022-12-01T07:46:25.577Z,43.53
2022-12-01T07:48:53.902Z,39.33
2022-12-01T07:51:22.359Z,41.13
2022-12-01T07:53:50.310Z,43.63
2022-12-01T07:56:18.211Z,41.60
2022-12-01T07:58:44.915Z,40.78
2022-12-01T08:01:20.475Z,40.55
2022-12-01T08:03:54.637Z,42.15
2022-12-01T08:06:22.672Z,42.67
2022-12-01T08:08:49.875Z,40.72
2022-12-01T08:11:29.159Z,41.67
2022-12-01T08:13:56.548Z,42.63
2022-12-01T08:16:24.522Z,43.25
2022-12-01T08:18:51.394Z,43.42
2022-12-01T08:21:19.895Z,43.50
2022-12-01T08:23:46.695Z,41.38
2022-12-01T08:26:16.194Z,42.05
2022-12-01T08:28:43.593Z,40.80
2022-12-01T08:31:20.580Z,41.75
2022-12-01T08:33:48.280Z,40.03
2022-12-01T08:36:15.507Z,41.97
2022-12-01T08:38:46.161Z,41.30
2022-12-01T08:41:13.837Z,39.43
2022-12-01T08:44:00.491Z,39.08
2022-12-01T08:46:37.056Z,41.17
2022-12-01T08:49:05.190Z,37.30
2022-12-01T08:51:32.647Z,40.23
2022-12-01T08:54:00.491Z,39.77
2022-12-01T08:56:30.307Z,40.55
2022-12-01T08:58:58.030Z,42.55
2022-12-01T09:01:25.871Z,42.83
2022-12-01T09:04:08.852Z,38.65
2022-12-01T09:06:42.187Z,41.05
2022-12-01T09:09:10.466Z,42.28
2022-12-01T09:11:37.192Z,38.67
2022-12-01T09:14:03.894Z,39.90
2022-12-01T09:16:30.864Z,40.08
2022-12-01T09:21:26.729Z,41.22
2022-12-01T09:23:54.336Z,38.97
2022-12-01T09:26:21.090Z,41.83
2022-12-01T09:28:59.287Z,39.33
2022-12-01T09:31:25.850Z,36.30
2022-12-01T09:34:03.136Z,38.60
2022-12-01T09:36:31.908Z,41.80
2022-12-01T09:38:59.172Z,40.38
2022-12-01T09:41:33.387Z,37.55
2022-12-01T09:44:21.889Z,38.25
2022-12-01T09:46:48.523Z,39.55
2022-12-01T09:49:23.007Z,40.30
2022-12-01T09:51:54.464Z,39.53
2022-12-01T09:54:21.449Z,40.50
2022-12-01T09:59:22.536Z,39.20
2022-12-01T10:01:55.154Z,41.00
2022-12-01T10:04:36.663Z,40.03
2022-12-01T10:07:23.653Z,38.15
2022-12-01T10:09:59.207Z,39.08
2022-12-01T10:12:31.004Z,40.28
2022-12-01T10:15:12.735Z,37.73
2022-12-01T10:17:42.043Z,36.67
2022-12-01T10:20:22.768Z,36.88
2022-12-01T10:23:12.935Z,37.07
2022-12-01T10:25:57.291Z,36.13
2022-12-01T10:28:46.002Z,38.05
2022-12-01T10:31:18.774Z,39.42
2022-12-01T10:33:59.593Z,38.60
2022-12-01T10:36:27.773Z,36.22
2022-12-01T10:38:54.875Z,35.55
2022-12-01T10:41:23.692Z,37.13
2022-12-01T10:43:59.449Z,35.88
2022-12-01T10:46:33.695Z,37.63
2022-12-01T10:49:08.007Z,35.60
2022-12-01T10:51:56.653Z,33.92
2022-12-01T10:54:31.498Z,35.17
2022-12-01T10:56:59.483Z,36.50
2022-12-01T10:59:34.249Z,34.53
2022-12-01T11:02:02.500Z,33.60
2022-12-01T11:05:00.043Z,32.03
2022-12-01T11:07:33.564Z,33.65
2022-12-01T11:10:06.749Z,34.47
2022-12-01T11:12:34.132Z,35.73
2022-12-01T11:15:02.074Z,36.25
2022-12-01T11:17:33.432Z,33.50
2022-12-01T11:20:29.168Z,31.45
2022-12-01T11:23:25.611Z,33.20
2022-12-01T11:26:03.713Z,33.67
2022-12-01T11:28:31.786Z,30.98
2022-12-01T11:31:37.648Z,33.85
2022-12-01T11:34:04.689Z,33.35
2022-12-01T11:39:23.980Z,33.15
2022-12-01T11:42:00.257Z,34.07
2022-12-01T11:44:50.161Z,35.40
2022-12-01T11:47:24.948Z,36.13
2022-12-01T11:50:03.185Z,33.58
2022-12-01T11:52:31.155Z,33.70
2022-12-01T11:54:58.889Z,32.42
2022-12-01T11:57:35.628Z,31.83
2022-12-01T12:03:08.395Z,30.85
2022-12-01T12:05:42.623Z,33.35
2022-12-01T12:08:09.065Z,30.95
2022-12-01T12:10:46.456Z,33.17
2022-12-01T12:13:30.952Z,32.47
2022-12-01T12:16:20.878Z,33.33
2022-12-01T12:19:33.688Z,32.67
2022-12-01T12:22:20.174Z,35.17
2022-12-01T12:25:20.111Z,33.03
2022-12-01T12:27:56.932Z,35.08
2022-12-01T12:33:28.530Z,34.95
2022-12-01T12:35:57.824Z,35.08
2022-12-01T12:39:12.185Z,36.03
2022-12-01T12:41:48.584Z,35.53
2022-12-01T12:44:53.555Z,36.93
2022-12-01T12:47:45.400Z,35.63
2022-12-01T12:50:26.552Z,37.13
2022-12-01T12:52:59.485Z,36.55
2022-12-01T12:55:46.838Z,36.17
2022-12-01T12:58:20.475Z,34.47
2022-12-01T13:00:54.838Z,35.38
2022-12-01T13:03:38.356Z,34.50
2022-12-01T13:06:10.094Z,33.67
2022-12-01T13:08:45.146Z,34.40
2022-12-01T13:11:27.284Z,36.58
2022-12-01T13:14:10.730Z,35.10
2022-12-01T13:16:41.618Z,36.15
2022-12-01T13:19:30.667Z,35.40
2022-12-01T13:21:58.617Z,36.13
2022-12-01T13:24:28.848Z,36.40
2022-12-01T13:27:14.403Z,37.35
2022-12-01T13:29:46.748Z,36.63
2022-12-01T13:32:31.898Z,35.20
2022-12-01T13:35:00.387Z,37.72
2022-12-01T13:37:29.929Z,37.03
2022-12-01T13:40:27.221Z,38.13
2022-12-01T13:43:00.276Z,38.30
2022-12-01T13:45:37.552Z,35.30
2022-12-01T13:48:05.982Z,38.05
2022-12-01T13:50:45.966Z,35.22
2022-12-01T13:53:13.676Z,34.30
2022-12-01T13:56:17.331Z,35.03
2022-12-01T13:58:49.255Z,35.42
2022-12-01T14:01:22.740Z,35.05
2022-12-01T14:03:57.262Z,34.83
2022-12-01T14:06:35.999Z,36.58
2022-12-01T14:09:15.700Z,35.75
2022-12-01T14:11:54.241Z,33.35
2022-12-01T14:14:26.268Z,35.22
2022-12-01T14:16:58.566Z,34.40
2022-12-01T14:19:33.441Z,34.35
2022-12-01T14:22:05.665Z,34.83
2022-12-01T14:24:35.492Z,35.38
2022-12-01T14:27:03.728Z,30.83
2022-12-01T14:29:38.833Z,33.33
2022-12-01T14:32:25.608Z,32.47
2022-12-01T14:34:53.624Z,33.80
2022-12-01T14:37:23.919Z,32.92
2022-12-01T14:40:07.792Z,33.42
2022-12-01T14:42:57.441Z,33.50
2022-12-01T14:45:30.305Z,34.65
2022-12-01T14:48:05.784Z,33.65
2022-12-01T14:50:49.291Z,35.95
2022-12-01T14:53:26.205Z,35.95
2022-12-01T14:55:56.473Z,33.93
2022-12-01T14:58:29.127Z,34.85
2022-12-01T15:01:07.549Z,34.67
2022-12-01T15:03:47.462Z,32.07
2022-12-01T15:06:23.128Z,35.38
2022-12-01T15:09:33.920Z,33.43
2022-12-01T15:12:04.836Z,32.72
2022-12-01T15:14:46.608Z,33.55
2022-12-01T15:17:31.993Z,33.58
2022-12-01T15:19:59.096Z,32.92
2022-12-01T15:25:05.377Z,34.57
2022-12-01T15:27:32.828Z,32.53
2022-12-01T15:30:04.430Z,33.40
2022-12-01T15:32:34.350Z,35.85
2022-12-01T15:35:03.517Z,33.33
2022-12-01T15:37:39.618Z,34.00
2022-12-01T15:40:59.556Z,32.17
2022-12-01T15:43:06.849Z,33.83
2022-12-01T15:45:48.395Z,33.58
2022-12-01T15:48:29.410Z,32.10
2022-12-01T15:51:04.627Z,32.90
2022-12-01T15:53:34.407Z,32.93
2022-12-01T15:56:05.665Z,30.95
2022-12-01T15:58:36.315Z,33.43
2022-12-01T16:01:09.968Z,31.17
2022-12-01T16:03:48.115Z,32.60
2022-12-01T16:06:14.617Z,33.13
2022-12-01T16:08:41.181Z,31.95
2022-12-01T16:11:15.944Z,32.25
2022-12-01T16:13:50.219Z,33.35
2022-12-01T16:16:35.503Z,31.60
2022-12-01T16:19:32.175Z,34.03
2022-12-01T16:22:10.626Z,33.38
2022-12-01T16:24:52.550Z,33.90
2022-12-01T16:27:29.680Z,31.17
2022-12-01T16:32:39.301Z,31.70
2022-12-01T16:35:19.922Z,33.90
2022-12-01T16:37:46.437Z,34.23
2022-12-01T16:40:13.941Z,32.53
2022-12-01T16:42:40.383Z,31.77
2022-12-01T16:45:07.962Z,34.22
2022-12-01T16:47:34.492Z,31.52
2022-12-01T16:50:01.030Z,34.97
2022-12-01T16:52:44.765Z,31.77
2022-12-01T16:55:33.596Z,32.70
2022-12-01T16:58:00.079Z,33.05
2022-12-01T17:00:27.471Z,33.58
2022-12-01T17:02:54.002Z,32.92
2022-12-01T17:05:21.168Z,35.45
2022-12-01T17:07:48.179Z,32.77
2022-12-01T17:10:15.120Z,33.28
2022-12-01T17:12:41.669Z,31.75
2022-12-01T17:15:08.615Z,33.13
2022-12-01T17:17:35.249Z,32.80
2022-12-01T17:20:02.456Z,33.00
2022-12-01T17:22:29.226Z,30.98
2022-12-01T17:24:55.780Z,32.20
2022-12-01T17:27:23.377Z,32.35
2022-12-01T17:29:49.959Z,32.37
2022-12-01T17:32:16.611Z,31.80
2022-12-01T17:34:43.094Z,32.60
2022-12-01T17:37:09.623Z,31.88
2022-12-01T17:39:36.280Z,32.40
2022-12-01T17:42:02.775Z,33.47
2022-12-01T17:44:29.279Z,32.70
2022-12-01T17:46:56.010Z,31.98
2022-12-01T17:49:22.635Z,33.53
2022-12-01T17:51:49.138Z,34.08
2022-12-01T17:54:15.686Z,32.00
2022-12-01T17:56:43.325Z,32.78
2022-12-01T17:59:09.870Z,32.47
2022-12-01T18:01:36.670Z,32.95
2022-12-01T18:04:03.360Z,29.40
2022-12-01T18:06:30.049Z,31.75
2022-12-01T18:08:57.564Z,35.00
2022-12-01T18:11:24.254Z,31.60
2022-12-01T18:13:52.181Z,33.42
2022-12-01T18:16:20.364Z,34.10
2022-12-01T18:18:47.692Z,34.17
2022-12-01T18:21:16.833Z,33.92
2022-12-01T18:23:49.807Z,34.67
2022-12-01T18:26:16.814Z,32.55
2022-12-01T18:33:40.293Z,31.95
2022-12-01T18:36:13.339Z,33.33
2022-12-01T18:38:41.226Z,34.42
2022-12-01T18:41:07.781Z,32.78
2022-12-01T18:43:34.759Z,34.00
2022-12-01T18:48:29.219Z,32.08
2022-12-01T18:50:59.404Z,32.90
2022-12-01T18:53:27.007Z,33.08
2022-12-01T18:55:53.748Z,32.60
2022-12-01T18:58:20.257Z,31.50
2022-12-01T19:00:46.823Z,34.35
2022-12-01T19:03:13.442Z,34.50
2022-12-01T19:05:40.417Z,26.63
2022-12-01T19:08:07.261Z,32.33
2022-12-01T19:13:00.641Z,32.90
2022-12-01T19:15:27.548Z,33.88
2022-12-01T19:17:54.867Z,35.60
2022-12-01T19:20:21.342Z,33.40
2022-12-01T19:22:47.828Z,32.80
2022-12-01T19:25:14.499Z,31.10
2022-12-01T19:27:41.115Z,32.80
2022-12-01T19:30:08.164Z,34.75
2022-12-01T19:32:34.760Z,32.40
2022-12-01T19:35:01.430Z,36.65
2022-12-01T19:37:27.931Z,32.25
2022-12-01T19:39:54.569Z,34.50
2022-12-01T19:42:21.022Z,31.80
2022-12-01T19:44:47.637Z,33.75
2022-12-01T19:47:17.780Z,33.30
2022-12-01T19:49:48.327Z,33.85
2022-12-01T19:52:14.816Z,34.08
2022-12-01T19:54:41.347Z,32.90
2022-12-01T19:57:07.823Z,30.05
2022-12-01T19:59:34.278Z,33.55
2022-12-01T20:02:00.834Z,32.60
2022-12-01T20:04:27.497Z,32.40
2022-12-01T20:06:54.003Z,34.03
2022-12-01T20:09:20.563Z,33.55
2022-12-01T20:11:47.138Z,36.38
2022-12-01T20:14:13.669Z,31.40
2022-12-01T20:16:40.435Z,33.28
2022-12-01T20:19:07.561Z,32.88
2022-12-01T20:21:39.142Z,33.60
2022-12-01T20:24:07.574Z,32.88
2022-12-01T20:26:37.217Z,31.37
2022-12-01T20:29:11.088Z,33.30
2022-12-01T20:31:38.468Z,32.27
2022-12-01T20:34:09.212Z,33.08
2022-12-01T20:36:36.121Z,33.30
2022-12-01T20:39:03.978Z,29.50
2022-12-01T20:41:30.474Z,31.10
2022-12-01T20:43:56.995Z,32.40
2022-12-01T20:51:17.197Z,31.30
2022-12-01T20:53:54.672Z,29.30
2022-12-01T20:56:31.560Z,32.90
2022-12-01T21:01:27.470Z,27.08
2022-12-01T21:03:54.511Z,32.50
2022-12-01T21:12:08.153Z,33.40
2022-12-01T21:14:37.837Z,33.73
2022-12-01T21:17:18.534Z,33.93
2022-12-01T21:20:08.992Z,34.92
2022-12-01T21:22:36.491Z,33.50
2022-12-01T21:25:12.260Z,34.40
2022-12-01T21:27:38.826Z,32.50
2022-12-01T21:30:15.779Z,32.15
2022-12-01T21:32:44.249Z,36.05
2022-12-01T21:35:17.485Z,32.88
2022-12-01T21:37:44.615Z,35.67
2022-12-01T21:40:23.774Z,36.00
2022-12-01T21:42:51.401Z,32.80
2022-12-01T21:45:27.964Z,31.90
2022-12-01T21:48:00.461Z,34.47
2022-12-01T21:50:27.410Z,31.58
2022-12-01T21:52:53.936Z,32.28
2022-12-01T21:55:20.366Z,33.28
2022-12-01T21:57:48.781Z,29.77
2022-12-01T22:00:35.957Z,32.97
2022-12-01T22:03:08.343Z,33.50
2022-12-01T22:05:40.420Z,34.30
2022-12-01T22:08:48.117Z,35.30
2022-12-01T22:11:30.889Z,35.72
2022-12-01T22:14:23.065Z,35.42
2022-12-01T22:17:12.838Z,36.08
2022-12-01T22:19:42.485Z,33.10
2022-12-01T22:22:08.978Z,34.83
2022-12-01T22:24:51.677Z,33.47
2022-12-01T22:27:28.648Z,36.90
2022-12-01T22:32:58.167Z,37.10
2022-12-01T22:35:34.924Z,35.92
2022-12-01T22:40:34.165Z,36.30
2022-12-01T22:43:29.267Z,37.50
2022-12-01T22:46:01.865Z,37.53
2022-12-01T22:48:39.102Z,36.83
2022-12-01T22:51:26.738Z,36.95
2022-12-01T22:54:14.695Z,35.33
2022-12-01T22:56:44.057Z,37.70
2022-12-01T22:59:38.836Z,37.60
2022-12-01T23:02:21.007Z,38.97
2022-12-01T23:04:50.075Z,37.40
2022-12-01T23:07:32.154Z,35.90
2022-12-01T23:10:14.528Z,38.63
2022-12-01T23:12:41.424Z,35.33
2022-12-01T23:15:19.719Z,38.08
2022-12-01T23:17:46.219Z,36.40
2022-12-01T23:20:33.542Z,35.55
2022-12-01T23:23:14.917Z,35.53
2022-12-01T23:25:42.211Z,36.85
2022-12-01T23:28:10.686Z,34.90
2022-12-01T23:30:40.283Z,38.90
2022-12-01T23:33:21.551Z,35.95
2022-12-01T23:35:55.811Z,33.85
2022-12-01T23:39:02.403Z,33.90
2022-12-01T23:41:35.590Z,34.72
2022-12-01T23:44:12.085Z,33.95
2022-12-01T23:46:38.730Z,35.92
2022-12-01T23:49:12.759Z,36.22
2022-12-01T23:51:44.111Z,35.30
2022-12-01T23:54:18.362Z,35.67
2022-12-01T23:56:49.821Z,36.20
2022-12-01T23:59:16.527Z,35.90
